Time;durP1;ratioP1;P1;durP2;ratioP2;P2;SDS_P1;SDS_P2;PMS_P1;PMS_P2;Temp;Humidity;BMP_temperature;BMP_pressure;BME280_temperature;BME280_humidity;BME280_pressure;Samples;Min_cycle;Max_cycle;Signal;HPM_P1;HPM_P2
2023/12/14 00:03:45;;;;;;;7.53;5.55;;;;;;;;;;6141865;23;20446;-85
2023/12/14 00:06:11;;;;;;;;;;;;;;;;;;6110110;23;20430;-85
2023/12/14 00:08:37;;;;;;;7.65;5.47;;;;;;;;;;6087884;23;20380;-84
2023/12/14 00:11:09;;;;;;;11.00;6.03;;;;;;;;;;6133130;23;20048;-84
2023/12/14 00:13:51;;;;;;;8.15;5.47;;;;;;;;;;6091316;23;20056;-85
2023/12/14 00:16:17;;;;;;;8.18;5.53;;;;;;;;;;6087239;23;20018;-85
2023/12/14 00:18:51;;;;;;;8.38;5.13;;;;;;;;;;6087430;23;20022;-85
2023/12/14 00:21:25;;;;;;;9.32;5.60;;;;;;;;;;6087928;23;20018;-85
2023/12/14 00:24:40;;;;;;;;;;;;;;;;;;;;;
2023/12/14 00:27:30;;;;;;;9.43;5.30;;;;;;;;;;6109546;23;20021;-85
2023/12/14 00:30:11;;;;;;;8.93;6.18;;;;;;;;;;6082211;23;20018;-84
2023/12/14 00:33:01;;;;;;;8.65;5.68;;;;;;;;;;6087427;23;20057;-84
2023/12/14 00:41:38;;;;;;;9.32;5.70;;;;;;;;;;6158040;23;20079;-84
2023/12/14 00:47:09;;;;;;;8.88;5.60;;;;;;;;;;6123902;23;20651;-84
2023/12/14 00:49:54;;;;;;;;;;;;;;;;;;;;;
2023/12/14 00:52:32;;;;;;;7.25;5.53;;;;;;;;;;6123232;23;20752;-84
2023/12/14 00:55:05;;;;;;;;;;;;;;;;;;6096461;23;20036;-85
2023/12/14 00:57:54;;;;;;;6.93;4.78;;;;;;;;;;6144467;23;19923;-84
2023/12/14 01:00:25;;;;;;;8.35;5.55;;;;;;;;;;6142509;23;20021;-85
2023/12/14 01:02:58;;;;;;;7.65;5.07;;;;;;;;;;6138777;23;20013;-85
2023/12/14 01:05:38;;;;;;;8.98;5.70;;;;;;;;;;6098745;23;20032;-85
2023/12/14 01:08:07;;;;;;;8.50;5.53;;;;;;;;;;6119153;23;20012;-84
2023/12/14 01:10:47;;;;;;;8.30;5.40;;;;;;;;;;6099127;23;20107;-85
2023/12/14 01:13:24;;;;;;;7.20;5.13;;;;;;;;;;6123360;23;20437;-84
2023/12/14 01:16:04;;;;;;;7.45;5.47;;;;;;;;;;6099988;23;20028;-86
2023/12/14 01:18:30;;;;;;;7.45;5.32;;;;;;;;;;6090587;23;20027;-85
2023/12/14 01:21:06;;;;;;;8.05;5.18;;;;;;;;;;6098411;23;20017;-85
2023/12/14 01:24:00;;;;;;;8.02;5.13;;;;;;;;;;6146834;23;20017;-85
2023/12/14 01:26:35;;;;;;;7.60;5.22;;;;;;;;;;6146093;23;20017;-85
2023/12/14 01:29:14;;;;;;;6.80;5.22;;;;;;;;;;6120662;23;20013;-85
2023/12/14 01:38:29;;;;;;;8.45;5.03;;;;;;;;;;6075857;23;20034;-85
2023/12/14 01:41:59;;;;;;;7.57;5.05;;;;;;;;;;6120822;23;20086;-85
2023/12/14 01:44:43;;;;;;;6.85;4.47;;;;;;;;;;6114238;23;20653;-85
2023/12/14 01:47:29;;;;;;;10.20;5.20;;;;;;;;;;6094448;23;20200;-84
2023/12/14 01:50:38;;;;;;;;;;;;;;;;;;;;;
2023/12/14 01:53:16;;;;;;;8.63;5.10;;;;;;;;;;6110526;23;20498;-84
2023/12/14 01:55:52;;;;;;;12.05;4.70;;;;;;;;;;6091507;23;20099;-85
2023/12/14 01:58:25;;;;;;;7.60;5.32;;;;;;;;;;6089562;23;20021;-84
2023/12/14 02:01:29;;;;;;;8.30;5.05;;;;;;;;;;6094321;23;20340;-85
2023/12/14 02:06:42;;;;;;;8.20;4.70;;;;;;;;;;6171548;23;20056;-85
2023/12/14 02:09:24;;;;;;;11.07;5.57;;;;;;;;;;6098051;23;20047;-84
2023/12/14 02:15:42;;;;;;;6.60;4.35;;;;;;;;;;6077911;23;20319;-84
2023/12/14 02:36:25;;;;;;;7.43;4.25;;;;;;;;;;6121846;23;20347;-85
2023/12/14 02:39:10;;;;;;;9.27;4.53;;;;;;;;;;6087529;23;20070;-84
2023/12/14 02:42:11;;;;;;;8.02;4.63;;;;;;;;;;6063657;23;20359;-84
2023/12/14 02:50:48;;;;;;;7.80;4.35;;;;;;;;;;6086371;23;20753;-85
2023/12/14 02:53:22;;;;;;;;;;;;;;;;;;6060779;23;20101;-85
2023/12/14 02:55:51;;;;;;;8.25;4.35;;;;;;;;;;6110078;23;20258;-85
2023/12/14 02:58:23;;;;;;;8.90;5.00;;;;;;;;;;6087684;23;20092;-85
2023/12/14 03:00:54;;;;;;;7.68;4.63;;;;;;;;;;6085859;23;20335;-85
2023/12/14 03:06:52;;;;;;;8.77;4.97;;;;;;;;;;6087275;23;20068;-85
2023/12/14 03:09:36;;;;;;;8.35;4.30;;;;;;;;;;6061135;23;20026;-85
2023/12/14 03:12:13;;;;;;;10.43;4.65;;;;;;;;;;6038855;23;20022;-84
2023/12/14 03:14:57;;;;;;;7.70;4.82;;;;;;;;;;6086801;23;20028;-84
2023/12/14 03:17:44;;;;;;;8.20;4.60;;;;;;;;;;6089826;23;20021;-85
2023/12/14 03:20:30;;;;;;;9.82;5.40;;;;;;;;;;6045730;23;20033;-85
2023/12/14 03:30:08;;;;;;;12.23;5.35;;;;;;;;;;6080032;23;20022;-84
2023/12/14 03:32:37;;;;;;;13.30;6.13;;;;;;;;;;6109453;23;20028;-84
2023/12/14 03:35:41;;;;;;;11.15;5.57;;;;;;;;;;6036717;23;20518;-85
2023/12/14 03:44:58;;;;;;;;;;;;;;;;;;;;;
2023/12/14 03:47:53;;;;;;;11.73;6.57;;;;;;;;;;6135079;23;20024;-85
2023/12/14 03:50:22;;;;;;;15.63;6.22;;;;;;;;;;6086834;23;20018;-84
2023/12/14 03:52:54;;;;;;;11.00;6.40;;;;;;;;;;6085950;23;20033;-85
2023/12/14 03:55:45;;;;;;;16.38;6.63;;;;;;;;;;6063383;23;20029;-85
2023/12/14 04:01:38;;;;;;;10.40;5.85;;;;;;;;;;6100759;23;20118;-85
2023/12/14 04:04:13;;;;;;;14.60;6.47;;;;;;;;;;6035500;23;20022;-85
2023/12/14 04:06:49;;;;;;;13.40;6.30;;;;;;;;;;6081442;23;20380;-85
2023/12/14 04:09:20;;;;;;;11.18;6.22;;;;;;;;;;6039439;23;20073;-85
2023/12/14 04:12:26;;;;;;;;;;;;;;;;;;;;;
2023/12/14 04:19:17;;;;;;;15.13;6.27;;;;;;;;;;6032663;22;20024;-85
2023/12/14 04:22:09;;;;;;;13.20;5.72;;;;;;;;;;6136674;23;20079;-85
2023/12/14 04:24:52;;;;;;;10.82;5.97;;;;;;;;;;6106018;23;20029;-85
2023/12/14 04:27:36;;;;;;;14.00;5.53;;;;;;;;;;6116025;23;20472;-85
2023/12/14 04:30:42;;;;;;;10.93;6.10;;;;;;;;;;6121825;23;20010;-85
2023/12/14 04:33:10;;;;;;;11.32;6.30;;;;;;;;;;6115266;23;20029;-85
2023/12/14 04:35:40;;;;;;;12.10;6.03;;;;;;;;;;6140685;23;20334;-85
2023/12/14 04:38:53;;;;;;;17.52;6.15;;;;;;;;;;6138925;23;20017;-85
2023/12/14 04:41:40;;;;;;;11.20;5.97;;;;;;;;;;6136770;23;20328;-85
2023/12/14 04:44:10;;;;;;;8.98;5.65;;;;;;;;;;6115426;23;20477;-85
2023/12/14 04:47:22;;;;;;;11.50;5.93;;;;;;;;;;6117092;23;20022;-85
2023/12/14 04:49:58;;;;;;;10.07;5.75;;;;;;;;;;6135428;23;20092;-85
2023/12/14 04:52:52;;;;;;;13.30;6.40;;;;;;;;;;6113243;23;20084;-85
2023/12/14 04:58:49;;;;;;;10.27;6.20;;;;;;;;;;6142602;23;20068;-84
2023/12/14 05:04:49;;;;;;;;;;;;;;;;;;6153159;23;20052;-85
2023/12/14 05:07:29;;;;;;;14.15;6.68;;;;;;;;;;6139773;23;19920;-85
2023/12/14 05:12:56;;;;;;;10.98;6.75;;;;;;;;;;6099576;23;20025;-85
2023/12/14 05:15:44;;;;;;;;;;;;;;;;;;;;;
2023/12/14 05:18:32;;;;;;;8.77;5.93;;;;;;;;;;6149791;23;20029;-85
2023/12/14 05:21:13;;;;;;;12.45;6.05;;;;;;;;;;6164809;23;20029;-85
2023/12/14 05:24:25;;;;;;;8.57;5.32;;;;;;;;;;6133234;23;20028;-85
2023/12/14 05:27:17;;;;;;;12.88;5.93;;;;;;;;;;6143746;23;20056;-85
2023/12/14 05:30:10;;;;;;;9.55;5.88;;;;;;;;;;6143776;23;20031;-85
2023/12/14 05:33:12;;;;;;;11.50;5.85;;;;;;;;;;6161860;23;20031;-85
2023/12/14 05:35:50;;;;;;;15.48;6.57;;;;;;;;;;6166377;23;20108;-85
2023/12/14 05:38:35;;;;;;;11.75;6.57;;;;;;;;;;6146971;23;20013;-84
2023/12/14 05:41:16;;;;;;;12.30;6.38;;;;;;;;;;6187866;23;20103;-85
2023/12/14 05:44:20;;;;;;;12.07;5.68;;;;;;;;;;6147781;23;20028;-85
2023/12/14 05:47:02;;;;;;;7.93;4.93;;;;;;;;;;6143525;23;20027;-84
2023/12/14 05:49:39;;;;;;;11.10;5.47;;;;;;;;;;6145447;23;20071;-85
2023/12/14 05:52:27;;;;;;;10.60;6.43;;;;;;;;;;6141669;23;20020;-85
2023/12/14 05:55:01;;;;;;;13.02;6.20;;;;;;;;;;6138797;23;20020;-84
2023/12/14 06:00:43;;;;;;;8.30;5.55;;;;;;;;;;6176457;23;20020;-85
2023/12/14 06:03:32;;;;;;;;;;;;;;;;;;;;;
2023/12/14 06:06:15;;;;;;;10.52;6.40;;;;;;;;;;6159664;23;20013;-85
2023/12/14 06:08:53;;;;;;;10.90;5.97;;;;;;;;;;6166276;23;20390;-85
2023/12/14 06:11:25;;;;;;;11.32;6.15;;;;;;;;;;6142439;23;20017;-85
2023/12/14 06:13:51;;;;;;;10.90;6.15;;;;;;;;;;6144219;23;20626;-84
2023/12/14 06:16:27;;;;;;;10.85;6.40;;;;;;;;;;6147212;23;20021;-85
2023/12/14 06:19:06;;;;;;;9.50;6.00;;;;;;;;;;6171199;23;20021;-85
2023/12/14 06:21:33;;;;;;;11.93;6.70;;;;;;;;;;6146690;23;20033;-84
2023/12/14 06:27:49;;;;;;;;;;;;;;;;;;;;;
2023/12/14 06:34:18;;;;;;;;;;;;;;;;;;;;;
2023/12/14 06:40:57;;;;;;;10.27;5.75;;;;;;;;;;6048547;23;20025;-88
2023/12/14 06:44:08;;;;;;;13.55;6.22;;;;;;;;;;6053609;23;20010;-88
2023/12/14 06:57:32;;;;;;;8.30;5.72;;;;;;;;;;5869548;24;20181;-88
2023/12/14 07:00:21;;;;;;;10.40;5.88;;;;;;;;;;5840388;24;20040;-87
2023/12/14 07:03:44;;;;;;;;;;;;;;;;;;;;;
2023/12/14 07:16:24;;;;;;;10.45;5.95;;;;;;;;;;6063584;23;20031;-91
2023/12/14 07:18:51;;;;;;;10.73;6.57;;;;;;;;;;6083604;23;20032;-92
2023/12/14 07:21:17;;;;;;;10.48;6.68;;;;;;;;;;6114810;23;20026;-92
2023/12/14 07:23:43;;;;;;;13.23;6.20;;;;;;;;;;6096420;23;20022;-93
2023/12/14 07:26:09;;;;;;;12.80;7.10;;;;;;;;;;6089546;23;20025;-92
2023/12/14 07:28:35;;;;;;;11.65;6.63;;;;;;;;;;6112297;23;20021;-92
2023/12/14 07:31:01;;;;;;;14.30;6.95;;;;;;;;;;6064276;23;20026;-92
2023/12/14 07:33:27;;;;;;;12.80;6.60;;;;;;;;;;6089320;23;20014;-92
2023/12/14 07:35:53;;;;;;;12.15;6.82;;;;;;;;;;6087803;23;20021;-93
2023/12/14 07:38:19;;;;;;;10.60;7.30;;;;;;;;;;6115985;23;20057;-92
2023/12/14 07:40:46;;;;;;;11.63;7.13;;;;;;;;;;6067852;23;20018;-93
2023/12/14 07:43:13;;;;;;;13.73;7.23;;;;;;;;;;6089557;23;20092;-92
2023/12/14 07:45:39;;;;;;;9.82;7.00;;;;;;;;;;6090916;23;20265;-92
2023/12/14 07:48:05;;;;;;;13.23;7.63;;;;;;;;;;6065182;23;20013;-92
2023/12/14 07:50:31;;;;;;;11.63;6.70;;;;;;;;;;6089682;23;20018;-91
2023/12/14 07:52:57;;;;;;;15.85;6.72;;;;;;;;;;6085891;23;20586;-92
2023/12/14 07:55:23;;;;;;;12.10;6.60;;;;;;;;;;6090797;23;20386;-92
2023/12/14 07:57:52;;;;;;;11.18;6.85;;;;;;;;;;6088266;23;20025;-92
2023/12/14 08:00:18;;;;;;;10.98;7.03;;;;;;;;;;6090985;23;20350;-92
2023/12/14 08:02:44;;;;;;;12.73;7.15;;;;;;;;;;6113674;23;20343;-92
2023/12/14 08:05:10;;;;;;;11.73;6.57;;;;;;;;;;6088835;23;20041;-92
2023/12/14 08:07:36;;;;;;;12.25;7.07;;;;;;;;;;6087950;23;20028;-92
2023/12/14 08:10:03;;;;;;;16.30;7.97;;;;;;;;;;6109723;23;20013;-92
2023/12/14 08:12:29;;;;;;;11.45;7.28;;;;;;;;;;6115765;23;20028;-92
2023/12/14 08:14:55;;;;;;;15.32;7.72;;;;;;;;;;6063846;23;20018;-93
2023/12/14 08:17:21;;;;;;;15.65;8.05;;;;;;;;;;6088481;23;20093;-92
2023/12/14 08:19:47;;;;;;;12.35;7.10;;;;;;;;;;6064283;23;20029;-92
2023/12/14 08:22:16;;;;;;;15.07;7.65;;;;;;;;;;6091562;23;20020;-93
2023/12/14 08:24:42;;;;;;;13.02;7.43;;;;;;;;;;6067793;23;20045;-91
2023/12/14 08:27:08;;;;;;;12.63;7.40;;;;;;;;;;6064109;23;20994;-92
2023/12/14 08:29:34;;;;;;;15.10;8.23;;;;;;;;;;6068617;23;20093;-92
2023/12/14 08:32:00;;;;;;;13.55;7.55;;;;;;;;;;6086291;23;20018;-92
2023/12/14 08:34:27;;;;;;;15.98;7.00;;;;;;;;;;6066378;23;20022;-92
2023/12/14 08:36:53;;;;;;;14.73;7.57;;;;;;;;;;6064279;23;20068;-92
2023/12/14 08:39:19;;;;;;;11.68;7.20;;;;;;;;;;6092379;23;20072;-92
2023/12/14 08:41:48;;;;;;;13.00;6.97;;;;;;;;;;6090996;23;20013;-91
2023/12/14 08:44:17;;;;;;;11.45;6.97;;;;;;;;;;6091521;23;20029;-91
2023/12/14 08:46:44;;;;;;;16.23;6.75;;;;;;;;;;6066492;23;20022;-91
2023/12/14 08:49:10;;;;;;;17.67;6.97;;;;;;;;;;6088515;23;20407;-93
2023/12/14 08:51:36;;;;;;;12.18;6.70;;;;;;;;;;6088561;23;20446;-92
2023/12/14 08:54:02;;;;;;;13.70;6.97;;;;;;;;;;6061162;23;20076;-92
2023/12/14 08:56:28;;;;;;;13.18;6.85;;;;;;;;;;6067326;23;20346;-93
2023/12/14 08:58:54;;;;;;;12.57;7.38;;;;;;;;;;6088082;23;20439;-92
2023/12/14 09:01:21;;;;;;;13.70;6.57;;;;;;;;;;6090948;23;20391;-92
2023/12/14 09:03:50;;;;;;;16.38;7.63;;;;;;;;;;6109332;23;20097;-93
2023/12/14 09:06:17;;;;;;;14.30;6.90;;;;;;;;;;6066695;23;20014;-93
2023/12/14 09:08:43;;;;;;;11.85;6.85;;;;;;;;;;6091420;23;20022;-92
2023/12/14 09:11:09;;;;;;;17.65;7.28;;;;;;;;;;6111806;23;20097;-91
2023/12/14 09:13:35;;;;;;;13.45;7.40;;;;;;;;;;6091227;23;20017;-93
2023/12/14 09:16:01;;;;;;;11.98;6.72;;;;;;;;;;6089546;23;20053;-92
2023/12/14 09:18:27;;;;;;;14.20;7.60;;;;;;;;;;6089757;23;20096;-92
2023/12/14 09:20:53;;;;;;;12.88;7.72;;;;;;;;;;6088466;23;20037;-92
2023/12/14 09:23:19;;;;;;;11.90;6.80;;;;;;;;;;6089801;23;20061;-92
2023/12/14 09:25:45;;;;;;;18.75;7.55;;;;;;;;;;6115097;23;20050;-93
2023/12/14 09:28:11;;;;;;;14.93;7.60;;;;;;;;;;6086249;23;20071;-92
2023/12/14 09:30:37;;;;;;;18.20;6.93;;;;;;;;;;6066620;23;20046;-92
2023/12/14 09:33:03;;;;;;;14.85;7.97;;;;;;;;;;6088664;23;20145;-93
2023/12/14 09:35:30;;;;;;;17.77;8.77;;;;;;;;;;6064005;23;20030;-91
2023/12/14 09:37:56;;;;;;;16.88;7.60;;;;;;;;;;6086299;23;20057;-92
2023/12/14 09:40:22;;;;;;;14.35;8.23;;;;;;;;;;6113903;23;20109;-92
2023/12/14 09:42:51;;;;;;;18.30;7.97;;;;;;;;;;6113084;23;20021;-93
2023/12/14 09:45:18;;;;;;;20.88;8.88;;;;;;;;;;6089894;23;20014;-92
2023/12/14 09:47:44;;;;;;;17.13;8.63;;;;;;;;;;6090664;23;20025;-91
2023/12/14 09:50:10;;;;;;;16.45;8.45;;;;;;;;;;6062674;23;20022;-92
2023/12/14 09:52:36;;;;;;;24.05;9.30;;;;;;;;;;6115195;23;20022;-92
2023/12/14 09:55:03;;;;;;;23.02;8.88;;;;;;;;;;6112763;23;20058;-92
2023/12/14 09:57:30;;;;;;;13.68;7.65;;;;;;;;;;6090092;23;20026;-92
2023/12/14 09:59:56;;;;;;;17.73;8.68;;;;;;;;;;6088039;23;20025;-92
2023/12/14 10:02:28;;;;;;;17.70;8.63;;;;;;;;;;6087247;23;20018;-93
2023/12/14 10:04:54;;;;;;;16.92;9.05;;;;;;;;;;6087408;23;20037;-92
2023/12/14 10:07:21;;;;;;;16.55;8.18;;;;;;;;;;6090350;23;20020;-92
2023/12/14 10:09:47;;;;;;;17.58;9.38;;;;;;;;;;6063050;23;20064;-92
2023/12/14 10:12:13;;;;;;;19.88;8.90;;;;;;;;;;6089866;23;20064;-92
2023/12/14 10:14:58;;;;;;;18.00;8.07;;;;;;;;;;6062573;23;20030;-92
2023/12/14 10:17:31;;;;;;;17.23;8.15;;;;;;;;;;6098125;23;20025;-92
2023/12/14 10:26:35;;;;;;;18.98;8.35;;;;;;;;;;6111138;23;20057;-92
2023/12/14 10:29:33;;;;;;;21.55;8.40;;;;;;;;;;6113849;23;20024;-91
2023/12/14 10:32:16;;;;;;;15.93;7.70;;;;;;;;;;6090384;23;20481;-92
2023/12/14 10:35:21;;;;;;;18.08;10.00;;;;;;;;;;6045558;23;20334;-92
2023/12/14 10:44:01;;;;;;;;;;;;;;;;;;6086717;23;20064;-91
2023/12/14 10:47:01;;;;;;;16.75;7.30;;;;;;;;;;6108150;23;19921;-92
2023/12/14 10:49:40;;;;;;;16.10;8.63;;;;;;;;;;6042618;23;20346;-92
2023/12/14 10:52:19;;;;;;;18.10;8.15;;;;;;;;;;6037752;23;20028;-91
2023/12/14 10:55:26;;;;;;;17.25;9.15;;;;;;;;;;6108787;23;20032;-92
2023/12/14 10:58:11;;;;;;;;;;;;;;;;;;;;;
2023/12/14 11:01:04;;;;;;;17.38;8.43;;;;;;;;;;6115164;23;20068;-91
2023/12/14 11:04:23;;;;;;;20.25;8.85;;;;;;;;;;6088098;23;20049;-92
2023/12/14 11:07:34;;;;;;;17.08;8.73;;;;;;;;;;6091286;23;20097;-92
2023/12/14 11:10:25;;;;;;;16.52;8.20;;;;;;;;;;6037453;23;20518;-92
2023/12/14 11:13:36;;;;;;;16.75;7.95;;;;;;;;;;6067602;23;20033;-92
2023/12/14 11:16:33;;;;;;;15.90;8.73;;;;;;;;;;6070069;23;20470;-92
2023/12/14 11:19:47;;;;;;;16.13;8.52;;;;;;;;;;6052759;23;20094;-92
2023/12/14 11:22:53;;;;;;;16.27;8.82;;;;;;;;;;6048396;23;20478;-92
2023/12/14 11:26:03;;;;;;;16.57;8.47;;;;;;;;;;5947733;24;20032;-92
2023/12/14 11:31:56;;;;;;;18.15;7.80;;;;;;;;;;5884624;24;20021;-93
2023/12/14 11:35:08;;;;;;;;;;;;;;;;;;;;;
2023/12/14 11:37:45;;;;;;;18.50;9.13;;;;;;;;;;5884780;24;20024;-92
2023/12/14 11:40:22;;;;;;;19.98;8.05;;;;;;;;;;5863144;24;20082;-92
2023/12/14 11:42:49;;;;;;;;;;;;;;;;;;5935034;23;20381;-92
2023/12/14 11:45:15;;;;;;;17.05;8.38;;;;;;;;;;5945173;23;19914;-92
2023/12/14 11:47:41;;;;;;;16.20;8.85;;;;;;;;;;5983766;23;20456;-91
2023/12/14 11:50:09;;;;;;;18.92;9.25;;;;;;;;;;6021402;23;20430;-91
2023/12/14 11:52:35;;;;;;;19.25;8.32;;;;;;;;;;6021616;23;20023;-92
2023/12/14 11:55:01;;;;;;;18.05;8.95;;;;;;;;;;5996748;23;20015;-91
2023/12/14 11:57:30;;;;;;;18.45;8.32;;;;;;;;;;6059940;23;20068;-91
2023/12/14 11:59:58;;;;;;;16.27;8.25;;;;;;;;;;6109461;23;20096;-92
2023/12/14 12:02:25;;;;;;;20.10;8.93;;;;;;;;;;6085994;23;20021;-92
2023/12/14 12:04:52;;;;;;;20.05;8.38;;;;;;;;;;6106840;23;20079;-93
2023/12/14 12:07:43;;;;;;;15.23;8.50;;;;;;;;;;6088219;23;20068;-92
2023/12/14 12:10:19;;;;;;;16.25;8.45;;;;;;;;;;6113077;23;20032;-91
2023/12/14 12:12:45;;;;;;;16.88;9.10;;;;;;;;;;6114481;23;20045;-92
2023/12/14 12:18:53;;;;;;;20.02;9.55;;;;;;;;;;6061746;23;20101;-92
2023/12/14 12:21:38;;;;;;;16.75;8.43;;;;;;;;;;6086182;23;20029;-92
2023/12/14 12:24:21;;;;;;;16.98;9.13;;;;;;;;;;6088169;23;20113;-91
2023/12/14 12:27:03;;;;;;;14.63;7.97;;;;;;;;;;6109149;23;20687;-91
2023/12/14 12:29:30;;;;;;;13.07;7.55;;;;;;;;;;6058044;23;20109;-91
2023/12/14 12:31:56;;;;;;;15.30;7.80;;;;;;;;;;6032221;23;20806;-93
2023/12/14 12:34:23;;;;;;;16.15;8.27;;;;;;;;;;6030075;23;20019;-92
2023/12/14 12:36:49;;;;;;;16.48;7.45;;;;;;;;;;6049954;23;20245;-93
2023/12/14 12:39:15;;;;;;;16.20;8.40;;;;;;;;;;6032876;23;20037;-91
2023/12/14 12:41:41;;;;;;;15.18;8.77;;;;;;;;;;6033116;23;20022;-91
2023/12/14 12:44:08;;;;;;;14.90;8.68;;;;;;;;;;6032165;23;20602;-91
2023/12/14 12:46:35;;;;;;;14.43;7.70;;;;;;;;;;6033548;23;20029;-92
2023/12/14 12:49:02;;;;;;;15.32;7.72;;;;;;;;;;6032048;23;20526;-92
2023/12/14 12:51:28;;;;;;;17.40;8.10;;;;;;;;;;6035952;23;20549;-92
2023/12/14 12:53:57;;;;;;;15.18;7.78;;;;;;;;;;6033382;23;20048;-92
2023/12/14 12:56:24;;;;;;;14.68;8.05;;;;;;;;;;6058347;23;20022;-92
2023/12/14 12:58:53;;;;;;;16.42;8.15;;;;;;;;;;6041830;23;20026;-92
2023/12/14 13:01:20;;;;;;;22.20;8.48;;;;;;;;;;6089556;23;20354;-92
2023/12/14 13:03:49;;;;;;;14.50;8.35;;;;;;;;;;6088742;23;20505;-92
2023/12/14 13:06:15;;;;;;;15.85;8.23;;;;;;;;;;6089134;23;20060;-92
2023/12/14 13:21:43;;;;;;;16.77;8.70;;;;;;;;;;6035391;23;20054;-87
2023/12/14 13:24:41;;;;;;;16.95;8.73;;;;;;;;;;5956719;23;20461;-88
2023/12/14 13:58:55;;;;;;;13.88;7.38;;;;;;;;;;5983344;23;20591;-87
2023/12/14 14:23:02;;;;;;;;;;;;;;;;;;;;;
2023/12/14 14:29:44;;;;;;;15.00;7.82;;;;;;;;;;5944793;24;20422;-87
2023/12/14 14:43:24;;;;;;;;;;;;;;;;;;;;;
2023/12/14 14:53:42;;;;;;;;;;;;;;;;;;;;;
2023/12/14 14:56:55;;;;;;;;;;;;;;;;;;;;;
2023/12/14 15:00:23;;;;;;;;;;;;;;;;;;;;;
2023/12/14 15:17:29;;;;;;;;;;;;;;;;;;;;;
2023/12/14 15:20:55;;;;;;;;;;;;;;;;;;;;;
2023/12/14 15:31:19;;;;;;;;;;;;;;;;;;;;;
2023/12/14 15:51:34;;;;;;;16.25;9.50;;;;;;;;;;5020350;28;20932;-89
2023/12/14 15:54:00;;;;;;;16.98;9.68;;;;;;;;;;4990185;28;20056;-90
2023/12/14 15:56:28;;;;;;;14.82;8.50;;;;;;;;;;4999737;28;20045;-90
2023/12/14 16:02:28;;;;;;;13.80;8.05;;;;;;;;;;4999735;28;20504;-90
2023/12/14 16:04:54;;;;;;;16.63;8.07;;;;;;;;;;4998932;28;20049;-91
2023/12/14 16:07:20;;;;;;;15.88;8.30;;;;;;;;;;4999249;28;20048;-90
2023/12/14 16:09:49;;;;;;;17.90;8.82;;;;;;;;;;5018943;28;20581;-89
2023/12/14 16:12:20;;;;;;;14.18;7.85;;;;;;;;;;4982656;28;20132;-90
2023/12/14 16:14:49;;;;;;;14.80;8.75;;;;;;;;;;4978528;28;20140;-91
2023/12/14 16:17:21;;;;;;;14.30;8.18;;;;;;;;;;4992836;28;20461;-91
2023/12/14 16:19:50;;;;;;;14.48;8.10;;;;;;;;;;4995008;28;20041;-91
2023/12/14 16:22:17;;;;;;;13.65;8.32;;;;;;;;;;4991869;28;20041;-90
2023/12/14 16:27:38;;;;;;;16.48;9.07;;;;;;;;;;4990942;28;20728;-91
2023/12/14 16:30:06;;;;;;;15.70;8.82;;;;;;;;;;4989084;28;20052;-91
2023/12/14 16:32:41;;;;;;;14.43;9.52;;;;;;;;;;4991669;28;20052;-91
2023/12/14 16:35:15;;;;;;;18.58;9.77;;;;;;;;;;4980807;28;20553;-91
2023/12/14 16:37:43;;;;;;;16.50;9.40;;;;;;;;;;4975705;28;20398;-90
2023/12/14 16:40:10;;;;;;;15.70;9.30;;;;;;;;;;4968466;28;20033;-91
2023/12/14 16:42:42;;;;;;;20.48;9.75;;;;;;;;;;4976355;28;20053;-91
2023/12/14 16:45:10;;;;;;;17.15;9.50;;;;;;;;;;4967753;28;20579;-91
2023/12/14 16:47:45;;;;;;;20.52;10.23;;;;;;;;;;4995879;28;20146;-91
2023/12/14 16:50:11;;;;;;;17.48;9.10;;;;;;;;;;4990092;28;20063;-91
2023/12/14 20:56:27;;;;;;;;;;;;;;;;;;;;;
2023/12/14 21:03:03;;;;;;;25.98;12.45;;;;;;;;;;4655476;30;20733;-91
2023/12/14 23:32:54;;;;;;;29.88;13.65;;;;;;;;;;5306761;24;20140;-91
2023/12/14 23:35:20;;;;;;;27.27;13.38;;;;;;;;;;4672495;30;20545;-91
2023/12/14 23:37:47;;;;;;;29.13;13.75;;;;;;;;;;4681396;30;20046;-91
2023/12/14 23:40:13;;;;;;;33.25;15.50;;;;;;;;;;4658380;30;20049;-91
2023/12/14 23:42:39;;;;;;;28.88;14.50;;;;;;;;;;4656746;30;20050;-91
2023/12/14 23:45:06;;;;;;;25.83;14.90;;;;;;;;;;4644281;30;20053;-90
2023/12/14 23:47:32;;;;;;;29.70;14.05;;;;;;;;;;4667485;30;20053;-90
2023/12/14 23:49:58;;;;;;;36.15;15.40;;;;;;;;;;4676816;30;20453;-90
2023/12/14 23:52:24;;;;;;;30.52;13.98;;;;;;;;;;4684757;30;20507;-91
2023/12/14 23:54:50;;;;;;;29.85;12.85;;;;;;;;;;4664194;30;20144;-91
2023/12/14 23:57:16;;;;;;;34.22;14.63;;;;;;;;;;4684876;30;20080;-90
2023/12/14 23:59:42;;;;;;;29.98;14.27;;;;;;;;;;4682906;30;20077;-91
